Time;durP1;ratioP1;P1;durP2;ratioP2;P2;SDS_P1;SDS_P2;PMS_P1;PMS_P2;Temp;Humidity;BMP_temperature;BMP_pressure;BME280_temperature;BME280_humidity;BME280_pressure;Samples;Min_cycle;Max_cycle;Signal;HPM_P1;HPM_P2
2021/11/05 00:00:10;;;;;;;21.24;11.67;;;;;;;;;;343915;154;864856;-63
2021/11/05 00:01:11;;;;;;;22.19;12.76;;;;;;;;;;343993;154;858962;-63
2021/11/05 00:02:13;;;;;;;23.09;13.19;;;;;;;;;;345122;154;859875;-65
2021/11/05 00:03:14;;;;;;;27.31;14.11;;;;;;;;;;342654;154;864805;-64
2021/11/05 00:04:16;;;;;;;19.94;11.82;;;;;;;;;;345788;153;857158;-63
2021/11/05 00:05:18;;;;;;;21.51;12.78;;;;;;;;;;342884;154;868295;-63
2021/11/05 00:06:19;;;;;;;20.74;13.06;;;;;;;;;;345907;153;864889;-63
2021/11/05 00:07:21;;;;;;;20.64;13.14;;;;;;;;;;344331;151;857347;-64
2021/11/05 00:08:23;;;;;;;22.49;12.71;;;;;;;;;;343536;154;857425;-64
2021/11/05 00:09:25;;;;;;;20.92;12.09;;;;;;;;;;344269;154;857270;-63
2021/11/05 00:10:27;;;;;;;23.60;13.91;;;;;;;;;;340678;153;857668;-63
2021/11/05 00:11:29;;;;;;;22.13;13.58;;;;;;;;;;343911;154;857378;-62
2021/11/05 00:12:30;;;;;;;21.26;13.11;;;;;;;;;;342018;154;858147;-63
2021/11/05 00:13:32;;;;;;;21.40;12.90;;;;;;;;;;342252;154;864980;-64
2021/11/05 00:14:33;;;;;;;20.78;13.09;;;;;;;;;;342961;153;858307;-63
2021/11/05 00:15:35;;;;;;;22.31;13.73;;;;;;;;;;342476;154;857419;-63
2021/11/05 00:16:37;;;;;;;21.07;12.27;;;;;;;;;;345242;154;865599;-62
2021/11/05 00:17:38;;;;;;;21.65;13.26;;;;;;;;;;345199;154;857321;-62
2021/11/05 00:18:40;;;;;;;19.79;12.52;;;;;;;;;;340174;154;859306;-63
2021/11/05 00:19:41;;;;;;;23.70;12.64;;;;;;;;;;344841;154;858322;-63
2021/11/05 00:20:43;;;;;;;21.76;13.24;;;;;;;;;;344614;151;865367;-63
2021/11/05 00:21:45;;;;;;;18.96;12.99;;;;;;;;;;343571;154;864854;-63
2021/11/05 00:22:46;;;;;;;21.34;12.61;;;;;;;;;;343527;154;857301;-63
2021/11/05 00:23:48;;;;;;;19.46;12.18;;;;;;;;;;343020;154;864725;-62
2021/11/05 00:24:50;;;;;;;18.22;11.27;;;;;;;;;;342902;153;866707;-64
2021/11/05 00:25:51;;;;;;;23.29;13.35;;;;;;;;;;343147;154;858939;-63
2021/11/05 00:26:53;;;;;;;20.92;12.70;;;;;;;;;;343599;154;866731;-64
2021/11/05 00:27:54;;;;;;;21.14;12.09;;;;;;;;;;343380;153;864441;-62
2021/11/05 00:28:56;;;;;;;17.74;11.67;;;;;;;;;;346446;153;859804;-63
2021/11/05 00:29:58;;;;;;;20.30;11.11;;;;;;;;;;344302;154;858932;-65
2021/11/05 00:30:59;;;;;;;19.99;12.05;;;;;;;;;;345045;154;857256;-62
2021/11/05 00:32:01;;;;;;;20.86;12.58;;;;;;;;;;344338;154;866544;-64
2021/11/05 00:33:02;;;;;;;21.01;12.77;;;;;;;;;;344978;153;864863;-63
2021/11/05 00:34:04;;;;;;;20.53;11.83;;;;;;;;;;344960;154;857261;-63
2021/11/05 00:35:06;;;;;;;19.39;12.26;;;;;;;;;;344504;153;857328;-64
2021/11/05 00:36:13;;;;;;;20.89;11.50;;;;;;;;;;344061;153;865240;-62
2021/11/05 00:37:12;;;;;;;22.90;12.56;;;;;;;;;;344243;154;864698;-63
2021/11/05 00:38:13;;;;;;;19.51;12.84;;;;;;;;;;343318;154;857222;-62
2021/11/05 00:39:15;;;;;;;14.51;9.00;;;;;;;;;;342126;154;858040;-64
2021/11/05 00:40:17;;;;;;;18.44;10.82;;;;;;;;;;341592;154;866740;-63
2021/11/05 00:41:19;;;;;;;19.79;13.68;;;;;;;;;;343373;154;865261;-63
2021/11/05 00:42:21;;;;;;;21.10;12.88;;;;;;;;;;346599;154;859149;-63
2021/11/05 00:43:23;;;;;;;22.73;13.31;;;;;;;;;;342629;154;864843;-62
2021/11/05 00:44:24;;;;;;;18.29;9.99;;;;;;;;;;342270;154;857184;-64
2021/11/05 00:45:26;;;;;;;15.90;10.06;;;;;;;;;;343842;154;857275;-62
2021/11/05 00:46:29;;;;;;;21.13;12.76;;;;;;;;;;343132;154;866729;-63
2021/11/05 00:47:31;;;;;;;23.04;14.13;;;;;;;;;;341621;154;858147;-63
2021/11/05 00:48:32;;;;;;;26.54;14.33;;;;;;;;;;343032;154;866654;-63
2021/11/05 00:49:34;;;;;;;23.39;12.85;;;;;;;;;;344822;154;858832;-62
2021/11/05 00:50:36;;;;;;;22.64;13.99;;;;;;;;;;342276;154;857377;-64
2021/11/05 00:51:38;;;;;;;24.27;13.51;;;;;;;;;;340263;157;858652;-62
2021/11/05 00:52:39;;;;;;;24.74;14.66;;;;;;;;;;339996;157;859931;-64
2021/11/05 00:53:41;;;;;;;23.07;13.96;;;;;;;;;;339155;155;859386;-63
2021/11/05 00:54:42;;;;;;;23.01;14.04;;;;;;;;;;329722;160;863869;-63
2021/11/05 00:55:44;;;;;;;19.89;12.23;;;;;;;;;;328897;159;859016;-63
2021/11/05 00:56:46;;;;;;;27.43;13.76;;;;;;;;;;341030;154;856450;-63
2021/11/05 00:57:47;;;;;;;22.26;13.43;;;;;;;;;;341883;154;858403;-63
2021/11/05 00:58:49;;;;;;;22.19;12.21;;;;;;;;;;339885;154;867083;-63
2021/11/05 00:59:50;;;;;;;20.76;12.76;;;;;;;;;;341664;154;857910;-63
2021/11/05 01:00:52;;;;;;;23.13;13.51;;;;;;;;;;340547;154;866036;-63
2021/11/05 01:01:54;;;;;;;25.50;13.26;;;;;;;;;;342212;154;864892;-62
2021/11/05 01:02:55;;;;;;;25.89;13.75;;;;;;;;;;345646;154;857307;-63
2021/11/05 01:03:57;;;;;;;23.14;14.66;;;;;;;;;;341847;154;866549;-63
2021/11/05 01:04:58;;;;;;;22.95;13.14;;;;;;;;;;341988;154;857186;-64
2021/11/05 01:06:00;;;;;;;23.50;13.61;;;;;;;;;;342623;154;858332;-63
2021/11/05 01:07:01;;;;;;;23.94;13.56;;;;;;;;;;342472;154;865918;-63
2021/11/05 01:08:04;;;;;;;22.79;13.54;;;;;;;;;;342961;154;858310;-64
2021/11/05 01:09:05;;;;;;;23.25;14.12;;;;;;;;;;342776;154;857325;-64
2021/11/05 01:10:08;;;;;;;22.22;11.81;;;;;;;;;;342692;154;860785;-63
2021/11/05 01:11:09;;;;;;;22.18;13.93;;;;;;;;;;344597;154;858063;-64
2021/11/05 01:12:11;;;;;;;18.41;11.02;;;;;;;;;;342153;154;866591;-65
2021/11/05 01:13:13;;;;;;;23.07;13.53;;;;;;;;;;343096;154;857363;-63
2021/11/05 01:14:14;;;;;;;18.11;12.48;;;;;;;;;;341253;154;857335;-63
2021/11/05 01:15:16;;;;;;;21.39;13.62;;;;;;;;;;344507;154;857322;-64
2021/11/05 01:16:18;;;;;;;23.78;13.59;;;;;;;;;;344091;154;858834;-63
2021/11/05 01:17:19;;;;;;;24.27;13.05;;;;;;;;;;341225;154;857332;-63
2021/11/05 01:18:21;;;;;;;24.06;13.61;;;;;;;;;;341661;152;862319;-63
2021/11/05 01:19:23;;;;;;;22.41;13.97;;;;;;;;;;342817;154;864924;-63
2021/11/05 01:20:25;;;;;;;20.99;11.96;;;;;;;;;;341511;154;859595;-65
2021/11/05 01:21:26;;;;;;;25.06;12.70;;;;;;;;;;343766;154;864773;-63
2021/11/05 01:22:28;;;;;;;19.99;12.69;;;;;;;;;;342562;154;859618;-63
2021/11/05 01:23:30;;;;;;;21.47;11.87;;;;;;;;;;342457;154;857809;-63
2021/11/05 01:24:31;;;;;;;21.89;13.41;;;;;;;;;;341129;154;865006;-63
2021/11/05 01:25:33;;;;;;;22.06;11.74;;;;;;;;;;341526;154;865715;-62
2021/11/05 01:26:35;;;;;;;21.75;12.40;;;;;;;;;;342540;154;859085;-62
2021/11/05 01:27:37;;;;;;;23.30;14.56;;;;;;;;;;343393;154;859187;-62
2021/11/05 01:28:39;;;;;;;22.56;12.86;;;;;;;;;;342983;154;857390;-63
2021/11/05 01:29:41;;;;;;;22.99;12.96;;;;;;;;;;344631;154;865543;-63
2021/11/05 01:30:43;;;;;;;21.83;12.08;;;;;;;;;;340891;154;864898;-62
2021/11/05 01:31:45;;;;;;;24.29;13.41;;;;;;;;;;340361;154;859616;-63
2021/11/05 01:32:47;;;;;;;22.58;13.24;;;;;;;;;;343281;153;866626;-62
2021/11/05 01:33:49;;;;;;;25.58;14.18;;;;;;;;;;342480;154;865496;-63
2021/11/05 01:34:50;;;;;;;25.43;13.19;;;;;;;;;;341529;154;857273;-62
2021/11/05 01:35:52;;;;;;;21.86;13.66;;;;;;;;;;341982;154;857426;-65
2021/11/05 01:36:54;;;;;;;23.63;13.34;;;;;;;;;;342851;154;865749;-65
2021/11/05 01:37:55;;;;;;;22.14;12.35;;;;;;;;;;342397;154;864853;-65
2021/11/05 01:38:57;;;;;;;24.13;13.16;;;;;;;;;;345403;154;865156;-64
2021/11/05 01:39:58;;;;;;;21.99;12.94;;;;;;;;;;342285;154;857258;-63
2021/11/05 01:41:00;;;;;;;18.75;12.61;;;;;;;;;;342015;154;857176;-63
2021/11/05 01:42:02;;;;;;;23.01;13.59;;;;;;;;;;343490;154;865947;-62
2021/11/05 01:43:04;;;;;;;21.50;12.79;;;;;;;;;;342857;152;858424;-62
2021/11/05 01:44:05;;;;;;;18.40;11.41;;;;;;;;;;341082;154;866605;-65
2021/11/05 01:45:07;;;;;;;22.35;13.99;;;;;;;;;;343583;154;866557;-63
2021/11/05 01:46:10;;;;;;;21.30;13.13;;;;;;;;;;340623;154;857102;-63
2021/11/05 01:47:12;;;;;;;18.91;11.35;;;;;;;;;;342546;154;859813;-64
2021/11/05 01:48:14;;;;;;;22.05;12.84;;;;;;;;;;342577;154;858917;-63
2021/11/05 01:49:16;;;;;;;19.35;12.28;;;;;;;;;;342336;154;858876;-63
2021/11/05 01:50:18;;;;;;;19.41;9.76;;;;;;;;;;346521;154;857854;-63
2021/11/05 01:51:19;;;;;;;21.29;13.39;;;;;;;;;;342898;154;857337;-63
2021/11/05 01:52:21;;;;;;;23.73;12.67;;;;;;;;;;340674;154;866116;-63
2021/11/05 01:53:22;;;;;;;26.54;14.71;;;;;;;;;;342332;154;857444;-63
2021/11/05 01:54:25;;;;;;;23.50;13.38;;;;;;;;;;342014;154;864817;-63
2021/11/05 01:55:27;;;;;;;21.23;13.42;;;;;;;;;;340774;154;857228;-64
2021/11/05 01:56:28;;;;;;;19.28;12.35;;;;;;;;;;341575;154;859984;-64
2021/11/05 01:57:30;;;;;;;24.48;11.83;;;;;;;;;;342527;151;865647;-64
2021/11/05 01:58:32;;;;;;;21.26;12.42;;;;;;;;;;344427;154;862751;-64
2021/11/05 01:59:33;;;;;;;22.35;12.45;;;;;;;;;;342404;154;864867;-63
2021/11/05 02:00:35;;;;;;;23.93;13.46;;;;;;;;;;342917;154;857403;-63
2021/11/05 02:01:37;;;;;;;22.27;13.80;;;;;;;;;;342948;154;857355;-63
2021/11/05 02:02:39;;;;;;;25.17;14.37;;;;;;;;;;343878;154;859743;-63
2021/11/05 02:03:40;;;;;;;17.63;11.55;;;;;;;;;;344313;154;858024;-63
2021/11/05 02:04:42;;;;;;;23.86;13.61;;;;;;;;;;345279;154;856437;-65
2021/11/05 02:05:44;;;;;;;23.32;12.83;;;;;;;;;;340874;154;859172;-63
2021/11/05 02:06:46;;;;;;;23.14;13.48;;;;;;;;;;343121;154;857671;-63
2021/11/05 02:07:52;;;;;;;27.24;15.09;;;;;;;;;;341588;154;857286;-62
2021/11/05 02:08:53;;;;;;;20.88;12.50;;;;;;;;;;343851;154;857314;-63
2021/11/05 02:09:57;;;;;;;23.41;13.86;;;;;;;;;;341326;154;857686;-63
2021/11/05 02:10:58;;;;;;;22.02;12.88;;;;;;;;;;342019;154;866065;-63
2021/11/05 02:12:00;;;;;;;24.36;14.06;;;;;;;;;;337554;157;864747;-63
2021/11/05 02:13:02;;;;;;;25.02;13.52;;;;;;;;;;336471;154;865907;-63
2021/11/05 02:14:03;;;;;;;23.34;14.41;;;;;;;;;;343340;154;865848;-63
2021/11/05 02:15:05;;;;;;;24.78;14.41;;;;;;;;;;343216;154;865834;-64
2021/11/05 02:16:09;;;;;;;23.87;13.55;;;;;;;;;;341647;152;859918;-63
2021/11/05 02:17:11;;;;;;;24.63;14.38;;;;;;;;;;340425;154;865267;-62
2021/11/05 02:18:13;;;;;;;22.66;13.93;;;;;;;;;;340319;154;859032;-63
2021/11/05 02:19:16;;;;;;;26.13;14.46;;;;;;;;;;342351;154;859170;-62
2021/11/05 02:20:23;;;;;;;25.61;14.76;;;;;;;;;;341184;154;857345;-63
2021/11/05 02:21:30;;;;;;;23.45;14.32;;;;;;;;;;341479;154;857677;-64
2021/11/05 02:22:32;;;;;;;22.70;12.66;;;;;;;;;;340835;154;857228;-63
2021/11/05 02:23:33;;;;;;;25.79;15.10;;;;;;;;;;340794;154;859234;-63
2021/11/05 02:24:35;;;;;;;24.34;14.69;;;;;;;;;;343664;154;865144;-62
2021/11/05 02:25:37;;;;;;;22.36;14.19;;;;;;;;;;342571;154;866636;-63
2021/11/05 02:26:40;;;;;;;24.99;13.77;;;;;;;;;;341703;154;859880;-63
2021/11/05 02:27:41;;;;;;;24.33;14.82;;;;;;;;;;341770;154;864907;-62
2021/11/05 02:28:43;;;;;;;21.77;13.58;;;;;;;;;;342515;154;856841;-64
2021/11/05 02:29:44;;;;;;;25.64;13.51;;;;;;;;;;343450;154;856504;-63
2021/11/05 02:30:46;;;;;;;23.51;14.39;;;;;;;;;;342561;154;865002;-64
2021/11/05 02:31:48;;;;;;;22.56;14.18;;;;;;;;;;340898;154;865578;-63
2021/11/05 02:32:50;;;;;;;21.61;13.93;;;;;;;;;;339473;157;858145;-63
2021/11/05 02:33:52;;;;;;;23.69;14.09;;;;;;;;;;333930;158;856502;-63
2021/11/05 02:34:53;;;;;;;26.09;15.16;;;;;;;;;;334081;159;865335;-62
2021/11/05 02:35:55;;;;;;;22.29;13.63;;;;;;;;;;340921;157;857318;-63
2021/11/05 02:36:57;;;;;;;21.93;13.70;;;;;;;;;;338450;154;857241;-63
2021/11/05 02:37:58;;;;;;;21.27;12.94;;;;;;;;;;330206;160;857245;-63
2021/11/05 02:39:01;;;;;;;24.89;13.93;;;;;;;;;;336920;157;858899;-64
2021/11/05 02:40:03;;;;;;;23.59;14.19;;;;;;;;;;339534;156;865948;-64
2021/11/05 02:41:05;;;;;;;25.76;12.97;;;;;;;;;;338056;156;867168;-63
2021/11/05 02:42:06;;;;;;;23.12;13.50;;;;;;;;;;330249;159;857272;-64
2021/11/05 02:43:08;;;;;;;21.11;12.17;;;;;;;;;;336431;157;860914;-63
2021/11/05 02:44:09;;;;;;;22.24;12.81;;;;;;;;;;333656;158;865306;-64
2021/11/05 02:45:11;;;;;;;23.52;13.71;;;;;;;;;;332442;159;866298;-63
2021/11/05 02:46:13;;;;;;;25.41;13.92;;;;;;;;;;338225;157;864797;-63
2021/11/05 02:47:15;;;;;;;23.00;11.57;;;;;;;;;;340105;154;857377;-63
2021/11/05 02:48:17;;;;;;;25.99;14.57;;;;;;;;;;330386;161;866639;-64
2021/11/05 02:49:19;;;;;;;26.42;14.70;;;;;;;;;;338201;156;857286;-64
2021/11/05 02:50:22;;;;;;;23.08;13.43;;;;;;;;;;338044;155;866484;-64
2021/11/05 02:51:24;;;;;;;24.20;13.85;;;;;;;;;;337895;156;857737;-62
2021/11/05 02:52:25;;;;;;;25.91;13.85;;;;;;;;;;329693;161;859543;-64
2021/11/05 02:53:27;;;;;;;25.01;13.21;;;;;;;;;;336946;158;865414;-64
2021/11/05 02:54:28;;;;;;;26.99;14.49;;;;;;;;;;336438;157;865026;-63
2021/11/05 02:55:30;;;;;;;23.93;13.52;;;;;;;;;;332996;159;865374;-64
2021/11/05 02:56:32;;;;;;;27.50;15.21;;;;;;;;;;341108;157;865020;-63
2021/11/05 02:57:34;;;;;;;24.97;14.46;;;;;;;;;;340009;151;860017;-64
2021/11/05 02:58:35;;;;;;;25.56;14.65;;;;;;;;;;337153;156;865459;-63
2021/11/05 02:59:37;;;;;;;23.57;12.81;;;;;;;;;;336929;158;857383;-64
2021/11/05 03:00:42;;;;;;;24.32;14.23;;;;;;;;;;334406;158;857455;-64
2021/11/05 03:01:43;;;;;;;25.98;15.40;;;;;;;;;;335586;156;857590;-63
2021/11/05 03:02:45;;;;;;;25.81;15.14;;;;;;;;;;336456;158;857939;-64
2021/11/05 03:03:47;;;;;;;26.13;13.56;;;;;;;;;;335295;158;866591;-64
2021/11/05 03:04:49;;;;;;;24.13;14.08;;;;;;;;;;336234;156;857210;-64
2021/11/05 03:05:50;;;;;;;24.55;14.16;;;;;;;;;;335910;156;865391;-63
2021/11/05 03:06:54;;;;;;;23.74;13.57;;;;;;;;;;336771;157;866329;-63
2021/11/05 03:07:55;;;;;;;23.30;14.43;;;;;;;;;;334610;159;858713;-63
2021/11/05 03:08:57;;;;;;;23.66;13.00;;;;;;;;;;334804;159;859507;-62
2021/11/05 03:09:58;;;;;;;26.29;14.72;;;;;;;;;;335190;159;864770;-63
2021/11/05 03:11:00;;;;;;;25.51;14.54;;;;;;;;;;335169;159;857370;-63
2021/11/05 03:12:03;;;;;;;22.50;13.13;;;;;;;;;;332236;159;865951;-63
2021/11/05 03:13:04;;;;;;;26.15;15.60;;;;;;;;;;337961;156;858337;-63
2021/11/05 03:14:06;;;;;;;27.19;14.20;;;;;;;;;;341264;156;857691;-64
2021/11/05 03:15:08;;;;;;;25.02;13.42;;;;;;;;;;340627;154;864963;-63
2021/11/05 03:16:10;;;;;;;22.49;13.67;;;;;;;;;;337986;156;859053;-62
2021/11/05 03:17:13;;;;;;;26.66;14.85;;;;;;;;;;331773;160;865712;-63
2021/11/05 03:18:15;;;;;;;25.83;15.79;;;;;;;;;;339778;157;864921;-62
2021/11/05 03:19:17;;;;;;;28.43;14.57;;;;;;;;;;333997;158;865978;-63
2021/11/05 03:20:20;;;;;;;23.83;15.10;;;;;;;;;;332942;159;859988;-65
2021/11/05 03:21:22;;;;;;;30.65;16.29;;;;;;;;;;337594;157;859409;-64
2021/11/05 03:22:23;;;;;;;28.27;16.52;;;;;;;;;;339036;155;857273;-65
2021/11/05 03:23:25;;;;;;;30.35;16.02;;;;;;;;;;333784;158;866065;-64
2021/11/05 03:24:27;;;;;;;29.36;16.85;;;;;;;;;;330680;159;865921;-62
2021/11/05 03:25:28;;;;;;;30.21;17.52;;;;;;;;;;333484;159;865850;-63
2021/11/05 03:26:30;;;;;;;29.79;16.70;;;;;;;;;;333962;159;858947;-63
2021/11/05 03:27:33;;;;;;;28.30;16.72;;;;;;;;;;332344;159;865104;-64
2021/11/05 03:28:35;;;;;;;26.81;16.12;;;;;;;;;;332912;159;865456;-64
2021/11/05 03:29:37;;;;;;;29.43;17.78;;;;;;;;;;333695;159;857369;-63
2021/11/05 03:30:38;;;;;;;31.67;17.65;;;;;;;;;;329183;160;857427;-64
2021/11/05 03:31:41;;;;;;;32.07;18.79;;;;;;;;;;329559;162;859499;-63
2021/11/05 03:32:43;;;;;;;28.37;18.09;;;;;;;;;;326531;160;864036;-63
2021/11/05 03:33:45;;;;;;;27.91;16.51;;;;;;;;;;329257;160;865013;-63
2021/11/05 03:34:46;;;;;;;32.58;17.33;;;;;;;;;;329189;162;866113;-63
2021/11/05 03:35:48;;;;;;;33.84;17.57;;;;;;;;;;328993;161;858583;-63
2021/11/05 03:36:49;;;;;;;29.33;16.66;;;;;;;;;;328652;160;864885;-63
2021/11/05 03:37:51;;;;;;;34.86;18.51;;;;;;;;;;328778;161;864069;-63
2021/11/05 03:38:53;;;;;;;28.52;15.41;;;;;;;;;;327640;161;857365;-63
2021/11/05 03:39:54;;;;;;;36.92;18.34;;;;;;;;;;332586;159;857308;-63
2021/11/05 03:40:56;;;;;;;31.33;18.04;;;;;;;;;;327315;161;865351;-63
2021/11/05 03:41:58;;;;;;;28.61;16.76;;;;;;;;;;332713;159;865288;-62
2021/11/05 03:43:00;;;;;;;25.28;15.34;;;;;;;;;;328898;161;866425;-62
2021/11/05 03:44:01;;;;;;;31.93;16.54;;;;;;;;;;335108;159;860705;-63
2021/11/05 03:45:04;;;;;;;28.75;16.91;;;;;;;;;;332544;158;859920;-62
2021/11/05 03:46:06;;;;;;;29.61;16.45;;;;;;;;;;337710;159;857515;-65
2021/11/05 03:47:08;;;;;;;28.95;15.93;;;;;;;;;;336353;158;866010;-63
2021/11/05 03:48:09;;;;;;;27.73;16.74;;;;;;;;;;333972;159;858995;-64
2021/11/05 03:49:11;;;;;;;28.36;16.03;;;;;;;;;;334530;159;862706;-64
2021/11/05 03:50:13;;;;;;;28.29;15.81;;;;;;;;;;336172;158;857309;-62
2021/11/05 03:51:15;;;;;;;31.72;16.29;;;;;;;;;;333199;159;857351;-64
2021/11/05 03:52:17;;;;;;;28.74;16.85;;;;;;;;;;327143;161;866661;-62
2021/11/05 03:53:18;;;;;;;31.19;16.37;;;;;;;;;;330623;160;856406;-63
2021/11/05 03:54:20;;;;;;;31.70;16.61;;;;;;;;;;332720;159;858459;-62
2021/11/05 03:55:21;;;;;;;28.12;16.54;;;;;;;;;;327885;161;860393;-61
2021/11/05 03:56:25;;;;;;;27.72;16.59;;;;;;;;;;328527;161;857824;-61
2021/11/05 03:57:27;;;;;;;29.23;16.45;;;;;;;;;;328046;161;858496;-60
2021/11/05 03:58:28;;;;;;;30.51;16.99;;;;;;;;;;332698;159;860682;-61
2021/11/05 03:59:30;;;;;;;32.96;16.49;;;;;;;;;;331723;159;857373;-61
2021/11/05 04:00:32;;;;;;;26.53;15.39;;;;;;;;;;331686;158;867258;-61
2021/11/05 04:01:33;;;;;;;29.64;16.76;;;;;;;;;;333060;159;859415;-60
2021/11/05 04:02:35;;;;;;;28.43;15.50;;;;;;;;;;333666;159;858595;-60
2021/11/05 04:03:37;;;;;;;25.31;14.41;;;;;;;;;;331923;158;865109;-61
2021/11/05 04:04:39;;;;;;;33.20;17.09;;;;;;;;;;326504;161;857410;-59
2021/11/05 04:05:41;;;;;;;31.06;15.91;;;;;;;;;;332996;159;857418;-61
2021/11/05 04:06:42;;;;;;;25.81;15.52;;;;;;;;;;333533;159;856300;-63
2021/11/05 04:07:44;;;;;;;29.64;16.26;;;;;;;;;;335591;160;864188;-60
2021/11/05 04:08:45;;;;;;;30.50;16.15;;;;;;;;;;335347;156;859091;-59
2021/11/05 04:09:47;;;;;;;28.79;15.27;;;;;;;;;;335648;158;858498;-60
2021/11/05 04:10:49;;;;;;;29.31;15.87;;;;;;;;;;334359;159;857316;-59
2021/11/05 04:11:50;;;;;;;31.33;15.04;;;;;;;;;;336179;156;859023;-59
2021/11/05 04:12:52;;;;;;;34.05;17.21;;;;;;;;;;335820;158;866749;-60
2021/11/05 04:13:54;;;;;;;32.92;16.00;;;;;;;;;;335327;159;865006;-59
2021/11/05 04:14:55;;;;;;;30.81;15.25;;;;;;;;;;336539;156;859943;-59
2021/11/05 04:15:57;;;;;;;26.90;16.21;;;;;;;;;;334343;156;856533;-59
2021/11/05 04:16:58;;;;;;;30.31;16.27;;;;;;;;;;335549;158;864863;-60
2021/11/05 04:18:00;;;;;;;29.09;15.85;;;;;;;;;;333195;160;864938;-60
2021/11/05 04:19:02;;;;;;;30.21;16.19;;;;;;;;;;335212;157;865095;-62
2021/11/05 04:20:04;;;;;;;28.65;16.01;;;;;;;;;;335633;158;857365;-60
2021/11/05 04:21:06;;;;;;;37.53;16.61;;;;;;;;;;335567;159;858490;-60
2021/11/05 04:22:08;;;;;;;37.33;15.83;;;;;;;;;;334825;157;857137;-60
2021/11/05 04:23:11;;;;;;;27.73;14.39;;;;;;;;;;335688;158;857765;-60
2021/11/05 04:24:13;;;;;;;31.17;15.92;;;;;;;;;;333985;158;859128;-59
2021/11/05 04:25:15;;;;;;;31.64;15.36;;;;;;;;;;335265;160;857698;-67
2021/11/05 04:26:17;;;;;;;31.85;16.83;;;;;;;;;;335972;157;865119;-59
2021/11/05 04:27:19;;;;;;;32.55;17.18;;;;;;;;;;334694;158;857238;-59
2021/11/05 04:28:20;;;;;;;27.99;15.07;;;;;;;;;;335946;158;856376;-59
2021/11/05 04:29:22;;;;;;;31.13;17.51;;;;;;;;;;336752;156;865018;-59
2021/11/05 04:30:24;;;;;;;31.37;17.23;;;;;;;;;;334289;157;865942;-60
2021/11/05 04:31:26;;;;;;;31.37;17.13;;;;;;;;;;336349;158;857351;-60
2021/11/05 04:32:27;;;;;;;27.00;16.06;;;;;;;;;;332680;160;857182;-59
2021/11/05 04:33:31;;;;;;;28.74;16.11;;;;;;;;;;336875;157;858142;-59
2021/11/05 04:34:33;;;;;;;32.42;16.27;;;;;;;;;;336016;158;857985;-58
2021/11/05 04:35:35;;;;;;;30.03;16.97;;;;;;;;;;335974;157;857416;-59
2021/11/05 04:36:38;;;;;;;31.36;16.65;;;;;;;;;;335949;156;865063;-59
2021/11/05 04:37:39;;;;;;;29.42;15.06;;;;;;;;;;336436;157;865537;-61
2021/11/05 04:38:41;;;;;;;26.87;14.49;;;;;;;;;;334804;158;857885;-60
2021/11/05 04:39:43;;;;;;;34.39;17.07;;;;;;;;;;335089;157;865908;-57
2021/11/05 04:40:45;;;;;;;27.11;16.01;;;;;;;;;;335585;157;864999;-61
2021/11/05 04:41:47;;;;;;;32.33;17.01;;;;;;;;;;335459;158;864980;-61
2021/11/05 04:42:49;;;;;;;30.05;16.05;;;;;;;;;;335361;160;857420;-65
2021/11/05 04:43:50;;;;;;;30.82;16.31;;;;;;;;;;335476;157;859252;-62
2021/11/05 04:44:52;;;;;;;32.99;15.56;;;;;;;;;;336267;156;865129;-62
2021/11/05 04:45:53;;;;;;;35.11;16.31;;;;;;;;;;335002;157;856150;-58
2021/11/05 04:46:55;;;;;;;29.41;15.81;;;;;;;;;;334386;156;857452;-60
2021/11/05 04:47:57;;;;;;;29.97;16.23;;;;;;;;;;336895;157;867543;-59
2021/11/05 04:48:59;;;;;;;30.52;16.45;;;;;;;;;;335349;158;857485;-59
2021/11/05 04:50:01;;;;;;;35.23;16.84;;;;;;;;;;341647;155;864938;-59
2021/11/05 04:51:03;;;;;;;31.76;17.17;;;;;;;;;;345025;153;859785;-60
2021/11/05 04:52:05;;;;;;;30.37;15.73;;;;;;;;;;339698;156;857373;-60
2021/11/05 04:53:06;;;;;;;33.07;17.26;;;;;;;;;;339959;156;865019;-62
2021/11/05 04:54:08;;;;;;;34.30;16.32;;;;;;;;;;340471;155;858006;-61
2021/11/05 04:55:10;;;;;;;32.29;17.31;;;;;;;;;;339174;156;865854;-61
2021/11/05 04:56:11;;;;;;;34.26;16.27;;;;;;;;;;338118;156;865011;-60
2021/11/05 04:57:13;;;;;;;34.36;16.89;;;;;;;;;;338199;155;866801;-60
2021/11/05 04:58:15;;;;;;;32.34;16.34;;;;;;;;;;341667;155;859015;-60
2021/11/05 04:59:18;;;;;;;33.84;16.70;;;;;;;;;;333354;158;857417;-59
2021/11/05 05:00:21;;;;;;;32.69;16.89;;;;;;;;;;333609;158;865775;-60
2021/11/05 05:01:23;;;;;;;31.07;17.85;;;;;;;;;;341514;155;859422;-61
2021/11/05 05:02:25;;;;;;;27.46;14.87;;;;;;;;;;339286;155;858936;-63
2021/11/05 05:03:26;;;;;;;29.72;15.69;;;;;;;;;;338011;155;857234;-63
2021/11/05 05:04:28;;;;;;;30.74;17.84;;;;;;;;;;339750;155;857465;-59
2021/11/05 05:05:30;;;;;;;32.86;15.74;;;;;;;;;;340008;155;866010;-60
2021/11/05 05:06:31;;;;;;;34.74;17.79;;;;;;;;;;339243;155;864860;-60
2021/11/05 05:07:33;;;;;;;33.83;16.36;;;;;;;;;;338512;155;858006;-63
2021/11/05 05:08:35;;;;;;;31.29;17.29;;;;;;;;;;339109;155;858192;-62
2021/11/05 05:09:36;;;;;;;30.86;16.48;;;;;;;;;;338894;155;864991;-61
2021/11/05 05:10:38;;;;;;;28.30;15.91;;;;;;;;;;339822;156;864118;-61
2021/11/05 05:11:44;;;;;;;31.58;15.94;;;;;;;;;;339437;155;864210;-64
2021/11/05 05:12:43;;;;;;;30.06;17.64;;;;;;;;;;339556;153;856771;-60
2021/11/05 05:13:45;;;;;;;31.34;17.16;;;;;;;;;;339179;155;857894;-59
2021/11/05 05:14:46;;;;;;;27.41;16.14;;;;;;;;;;338117;155;857481;-59
2021/11/05 05:15:51;;;;;;;32.10;16.26;;;;;;;;;;338915;155;865370;-60
2021/11/05 05:16:52;;;;;;;38.23;17.62;;;;;;;;;;338727;156;863849;-61
2021/11/05 05:17:54;;;;;;;32.67;17.31;;;;;;;;;;338152;156;858415;-58
2021/11/05 05:18:56;;;;;;;30.94;15.75;;;;;;;;;;340103;155;864978;-59
2021/11/05 05:19:57;;;;;;;29.05;14.64;;;;;;;;;;338875;155;866421;-64
2021/11/05 05:20:59;;;;;;;30.90;15.84;;;;;;;;;;336567;156;864926;-62
2021/11/05 05:22:02;;;;;;;31.45;15.83;;;;;;;;;;338462;155;864997;-61
2021/11/05 05:23:03;;;;;;;29.19;17.31;;;;;;;;;;338672;155;866715;-62
2021/11/05 05:24:05;;;;;;;31.70;16.74;;;;;;;;;;338949;155;857312;-57
2021/11/05 05:25:08;;;;;;;26.63;13.96;;;;;;;;;;332264;161;865056;-60
2021/11/05 05:26:12;;;;;;;30.01;17.26;;;;;;;;;;334626;158;857059;-60
2021/11/05 05:27:13;;;;;;;29.76;15.59;;;;;;;;;;338915;155;857866;-59
2021/11/05 05:28:15;;;;;;;29.26;16.46;;;;;;;;;;336799;155;858686;-60
2021/11/05 05:29:17;;;;;;;31.21;17.15;;;;;;;;;;334501;155;865787;-61
2021/11/05 05:30:20;;;;;;;32.39;17.57;;;;;;;;;;340135;155;857304;-59
2021/11/05 05:31:21;;;;;;;33.97;16.72;;;;;;;;;;341125;154;857207;-60
2021/11/05 05:32:24;;;;;;;28.05;15.59;;;;;;;;;;341557;154;857321;-59
2021/11/05 05:33:26;;;;;;;34.17;17.48;;;;;;;;;;342750;153;858573;-60
2021/11/05 05:34:27;;;;;;;30.96;16.62;;;;;;;;;;342089;154;857201;-60
2021/11/05 05:35:29;;;;;;;32.37;16.39;;;;;;;;;;341771;155;865498;-60
2021/11/05 05:36:31;;;;;;;30.85;17.47;;;;;;;;;;343211;154;857775;-60
2021/11/05 05:37:33;;;;;;;31.04;17.42;;;;;;;;;;340026;154;865994;-62
2021/11/05 05:38:35;;;;;;;35.47;17.29;;;;;;;;;;340302;155;864591;-60
2021/11/05 05:39:36;;;;;;;32.29;17.69;;;;;;;;;;341799;157;865196;-60
2021/11/05 05:40:38;;;;;;;31.11;16.81;;;;;;;;;;342863;154;865747;-59
2021/11/05 05:41:40;;;;;;;28.37;14.94;;;;;;;;;;341117;156;860171;-59
2021/11/05 05:42:42;;;;;;;26.70;13.71;;;;;;;;;;341478;155;857465;-59
2021/11/05 05:43:44;;;;;;;28.67;15.75;;;;;;;;;;340847;154;857650;-59
2021/11/05 05:44:46;;;;;;;31.48;16.96;;;;;;;;;;343855;154;864150;-59
2021/11/05 05:45:48;;;;;;;31.16;17.19;;;;;;;;;;344863;154;864969;-59
2021/11/05 05:46:49;;;;;;;33.00;19.54;;;;;;;;;;343673;154;857160;-59
2021/11/05 05:47:51;;;;;;;29.41;16.31;;;;;;;;;;343049;150;865081;-59
2021/11/05 05:48:52;;;;;;;31.39;17.29;;;;;;;;;;341098;155;857262;-59
2021/11/05 05:49:54;;;;;;;32.46;15.86;;;;;;;;;;342676;155;866035;-59
2021/11/05 05:50:56;;;;;;;32.28;16.56;;;;;;;;;;342112;154;858876;-61
2021/11/05 05:51:57;;;;;;;30.67;15.34;;;;;;;;;;340860;153;865076;-59
2021/11/05 05:52:59;;;;;;;34.41;16.49;;;;;;;;;;340681;154;858782;-58
2021/11/05 05:54:00;;;;;;;26.91;15.03;;;;;;;;;;340332;155;856755;-59